sensor_id;sensor_type;location;lat;lon;timestamp;P1;durP1;ratioP1;P2;durP2;ratioP2
11514;SDS011;5814;41.936;25.556;2024-03-29T00:00:35;36.08;;;13.38;;
11514;SDS011;5814;41.936;25.556;2024-03-29T00:03:01;38.92;;;13.02;;
11514;SDS011;5814;41.936;25.556;2024-03-29T00:05:26;34.63;;;12.23;;
11514;SDS011;5814;41.936;25.556;2024-03-29T00:07:52;31.67;;;12.05;;
11514;SDS011;5814;41.936;25.556;2024-03-29T00:10:17;36.40;;;12.88;;
11514;SDS011;5814;41.936;25.556;2024-03-29T00:12:43;34.13;;;11.13;;
11514;SDS011;5814;41.936;25.556;2024-03-29T00:15:09;33.55;;;12.65;;
11514;SDS011;5814;41.936;25.556;2024-03-29T00:17:34;36.17;;;13.20;;
11514;SDS011;5814;41.936;25.556;2024-03-29T00:20:00;42.47;;;13.15;;
11514;SDS011;5814;41.936;25.556;2024-03-29T00:22:27;43.95;;;12.50;;
11514;SDS011;5814;41.936;25.556;2024-03-29T00:24:53;34.60;;;13.32;;
11514;SDS011;5814;41.936;25.556;2024-03-29T00:27:18;39.60;;;13.48;;
11514;SDS011;5814;41.936;25.556;2024-03-29T00:29:44;35.63;;;14.25;;
11514;SDS011;5814;41.936;25.556;2024-03-29T00:32:12;43.45;;;16.02;;
11514;SDS011;5814;41.936;25.556;2024-03-29T00:34:37;41.45;;;16.60;;
11514;SDS011;5814;41.936;25.556;2024-03-29T00:37:03;47.70;;;16.75;;
11514;SDS011;5814;41.936;25.556;2024-03-29T00:39:29;38.33;;;14.23;;
11514;SDS011;5814;41.936;25.556;2024-03-29T00:41:54;37.42;;;14.00;;
11514;SDS011;5814;41.936;25.556;2024-03-29T00:44:21;35.45;;;13.00;;
11514;SDS011;5814;41.936;25.556;2024-03-29T00:46:46;34.95;;;13.23;;
11514;SDS011;5814;41.936;25.556;2024-03-29T00:49:12;34.13;;;14.52;;
11514;SDS011;5814;41.936;25.556;2024-03-29T00:51:38;49.55;;;14.20;;
11514;SDS011;5814;41.936;25.556;2024-03-29T00:54:04;42.80;;;15.25;;
11514;SDS011;5814;41.936;25.556;2024-03-29T00:56:30;38.10;;;13.30;;
11514;SDS011;5814;41.936;25.556;2024-03-29T00:58:55;31.73;;;14.48;;
11514;SDS011;5814;41.936;25.556;2024-03-29T01:01:21;33.10;;;12.93;;
11514;SDS011;5814;41.936;25.556;2024-03-29T01:03:46;35.95;;;12.68;;
11514;SDS011;5814;41.936;25.556;2024-03-29T01:06:12;32.95;;;12.80;;
11514;SDS011;5814;41.936;25.556;2024-03-29T01:08:37;29.52;;;12.10;;
11514;SDS011;5814;41.936;25.556;2024-03-29T01:11:03;42.95;;;12.63;;
11514;SDS011;5814;41.936;25.556;2024-03-29T01:13:29;35.15;;;12.55;;
11514;SDS011;5814;41.936;25.556;2024-03-29T01:15:55;35.55;;;12.35;;
11514;SDS011;5814;41.936;25.556;2024-03-29T01:18:21;31.25;;;12.13;;
11514;SDS011;5814;41.936;25.556;2024-03-29T01:20:46;29.25;;;11.95;;
11514;SDS011;5814;41.936;25.556;2024-03-29T01:23:12;30.00;;;12.00;;
11514;SDS011;5814;41.936;25.556;2024-03-29T01:25:37;35.28;;;12.15;;
11514;SDS011;5814;41.936;25.556;2024-03-29T01:28:03;31.20;;;11.90;;
11514;SDS011;5814;41.936;25.556;2024-03-29T01:30:29;30.50;;;11.15;;
11514;SDS011;5814;41.936;25.556;2024-03-29T01:32:55;33.60;;;11.23;;
11514;SDS011;5814;41.936;25.556;2024-03-29T01:35:20;31.08;;;11.68;;
11514;SDS011;5814;41.936;25.556;2024-03-29T01:37:46;28.83;;;11.60;;
11514;SDS011;5814;41.936;25.556;2024-03-29T01:40:11;28.20;;;11.57;;
11514;SDS011;5814;41.936;25.556;2024-03-29T01:42:37;26.30;;;11.50;;
11514;SDS011;5814;41.936;25.556;2024-03-29T01:45:02;30.27;;;11.93;;
11514;SDS011;5814;41.936;25.556;2024-03-29T01:47:28;27.42;;;12.32;;
11514;SDS011;5814;41.936;25.556;2024-03-29T01:49:53;29.83;;;11.43;;
11514;SDS011;5814;41.936;25.556;2024-03-29T01:52:19;31.70;;;12.60;;
11514;SDS011;5814;41.936;25.556;2024-03-29T01:54:45;32.17;;;12.52;;
11514;SDS011;5814;41.936;25.556;2024-03-29T01:57:12;36.40;;;12.50;;
11514;SDS011;5814;41.936;25.556;2024-03-29T01:59:38;32.75;;;12.23;;
11514;SDS011;5814;41.936;25.556;2024-03-29T02:02:07;29.55;;;11.80;;
11514;SDS011;5814;41.936;25.556;2024-03-29T02:04:34;31.67;;;11.75;;
11514;SDS011;5814;41.936;25.556;2024-03-29T02:07:01;28.83;;;12.23;;
11514;SDS011;5814;41.936;25.556;2024-03-29T02:09:28;37.15;;;11.98;;
11514;SDS011;5814;41.936;25.556;2024-03-29T02:11:54;34.55;;;12.65;;
11514;SDS011;5814;41.936;25.556;2024-03-29T02:14:20;31.65;;;12.07;;
11514;SDS011;5814;41.936;25.556;2024-03-29T02:16:45;29.48;;;11.82;;
11514;SDS011;5814;41.936;25.556;2024-03-29T02:19:11;32.30;;;12.80;;
11514;SDS011;5814;41.936;25.556;2024-03-29T02:21:45;28.40;;;11.68;;
11514;SDS011;5814;41.936;25.556;2024-03-29T02:24:13;29.85;;;11.80;;
11514;SDS011;5814;41.936;25.556;2024-03-29T02:26:41;32.13;;;13.13;;
11514;SDS011;5814;41.936;25.556;2024-03-29T02:29:10;32.15;;;13.18;;
11514;SDS011;5814;41.936;25.556;2024-03-29T02:31:36;30.33;;;12.95;;
11514;SDS011;5814;41.936;25.556;2024-03-29T02:34:01;30.08;;;12.98;;
11514;SDS011;5814;41.936;25.556;2024-03-29T02:36:27;34.88;;;12.80;;
11514;SDS011;5814;41.936;25.556;2024-03-29T02:38:53;30.20;;;12.50;;
11514;SDS011;5814;41.936;25.556;2024-03-29T02:41:18;24.00;;;11.98;;
11514;SDS011;5814;41.936;25.556;2024-03-29T02:43:44;31.17;;;12.10;;
11514;SDS011;5814;41.936;25.556;2024-03-29T02:46:10;30.95;;;12.18;;
11514;SDS011;5814;41.936;25.556;2024-03-29T02:48:35;29.63;;;12.93;;
11514;SDS011;5814;41.936;25.556;2024-03-29T02:51:01;31.55;;;12.95;;
11514;SDS011;5814;41.936;25.556;2024-03-29T02:53:26;31.13;;;13.50;;
11514;SDS011;5814;41.936;25.556;2024-03-29T02:55:52;28.37;;;12.83;;
11514;SDS011;5814;41.936;25.556;2024-03-29T02:58:17;32.90;;;12.37;;
11514;SDS011;5814;41.936;25.556;2024-03-29T03:00:43;28.27;;;12.00;;
11514;SDS011;5814;41.936;25.556;2024-03-29T03:03:08;30.03;;;12.23;;
11514;SDS011;5814;41.936;25.556;2024-03-29T03:05:34;28.23;;;11.87;;
11514;SDS011;5814;41.936;25.556;2024-03-29T03:07:59;37.33;;;12.53;;
11514;SDS011;5814;41.936;25.556;2024-03-29T03:10:46;29.70;;;12.40;;
11514;SDS011;5814;41.936;25.556;2024-03-29T03:13:21;25.73;;;12.40;;
11514;SDS011;5814;41.936;25.556;2024-03-29T03:15:47;35.47;;;14.77;;
11514;SDS011;5814;41.936;25.556;2024-03-29T03:18:12;29.73;;;12.40;;
11514;SDS011;5814;41.936;25.556;2024-03-29T03:20:38;30.10;;;12.47;;
11514;SDS011;5814;41.936;25.556;2024-03-29T03:23:03;29.70;;;11.87;;
11514;SDS011;5814;41.936;25.556;2024-03-29T03:25:29;31.77;;;11.57;;
11514;SDS011;5814;41.936;25.556;2024-03-29T03:27:54;25.13;;;11.77;;
11514;SDS011;5814;41.936;25.556;2024-03-29T03:30:20;30.37;;;12.03;;
11514;SDS011;5814;41.936;25.556;2024-03-29T03:32:46;34.23;;;16.30;;
11514;SDS011;5814;41.936;25.556;2024-03-29T03:35:11;37.50;;;16.33;;
11514;SDS011;5814;41.936;25.556;2024-03-29T03:37:37;35.33;;;14.17;;
11514;SDS011;5814;41.936;25.556;2024-03-29T03:40:02;27.53;;;12.03;;
11514;SDS011;5814;41.936;25.556;2024-03-29T03:42:29;33.73;;;14.23;;
11514;SDS011;5814;41.936;25.556;2024-03-29T03:44:55;24.83;;;11.80;;
11514;SDS011;5814;41.936;25.556;2024-03-29T03:47:21;30.87;;;12.40;;
11514;SDS011;5814;41.936;25.556;2024-03-29T03:49:46;25.80;;;12.40;;
11514;SDS011;5814;41.936;25.556;2024-03-29T03:52:12;25.67;;;12.73;;
11514;SDS011;5814;41.936;25.556;2024-03-29T03:54:37;30.73;;;11.90;;
11514;SDS011;5814;41.936;25.556;2024-03-29T03:57:03;35.50;;;20.13;;
11514;SDS011;5814;41.936;25.556;2024-03-29T03:59:29;29.17;;;12.90;;
11514;SDS011;5814;41.936;25.556;2024-03-29T04:01:55;27.33;;;13.57;;
11514;SDS011;5814;41.936;25.556;2024-03-29T04:04:20;28.70;;;14.17;;
11514;SDS011;5814;41.936;25.556;2024-03-29T04:06:46;29.37;;;13.57;;
11514;SDS011;5814;41.936;25.556;2024-03-29T04:09:14;27.63;;;13.23;;
11514;SDS011;5814;41.936;25.556;2024-03-29T04:11:41;35.13;;;15.80;;
11514;SDS011;5814;41.936;25.556;2024-03-29T04:14:07;32.50;;;15.00;;
11514;SDS011;5814;41.936;25.556;2024-03-29T04:16:32;32.87;;;14.60;;
11514;SDS011;5814;41.936;25.556;2024-03-29T04:18:58;27.77;;;14.23;;
11514;SDS011;5814;41.936;25.556;2024-03-29T04:21:23;35.67;;;15.33;;
11514;SDS011;5814;41.936;25.556;2024-03-29T04:23:49;41.57;;;21.10;;
11514;SDS011;5814;41.936;25.556;2024-03-29T04:26:14;34.77;;;17.83;;
11514;SDS011;5814;41.936;25.556;2024-03-29T04:28:39;27.07;;;12.47;;
11514;SDS011;5814;41.936;25.556;2024-03-29T04:31:05;30.80;;;16.30;;
11514;SDS011;5814;41.936;25.556;2024-03-29T04:33:30;31.60;;;15.37;;
11514;SDS011;5814;41.936;25.556;2024-03-29T04:35:56;40.87;;;23.60;;
11514;SDS011;5814;41.936;25.556;2024-03-29T04:38:28;34.03;;;20.57;;
11514;SDS011;5814;41.936;25.556;2024-03-29T04:40:55;42.28;;;19.30;;
11514;SDS011;5814;41.936;25.556;2024-03-29T04:43:22;33.80;;;16.67;;
11514;SDS011;5814;41.936;25.556;2024-03-29T04:45:49;32.63;;;14.55;;
11514;SDS011;5814;41.936;25.556;2024-03-29T04:48:15;32.92;;;14.13;;
11514;SDS011;5814;41.936;25.556;2024-03-29T04:50:40;30.42;;;14.32;;
11514;SDS011;5814;41.936;25.556;2024-03-29T04:53:09;22.50;;;13.10;;
11514;SDS011;5814;41.936;25.556;2024-03-29T04:55:35;37.15;;;16.95;;
11514;SDS011;5814;41.936;25.556;2024-03-29T04:58:01;36.30;;;21.67;;
11514;SDS011;5814;41.936;25.556;2024-03-29T05:00:26;21.67;;;10.05;;
11514;SDS011;5814;41.936;25.556;2024-03-29T05:02:52;25.63;;;14.32;;
11514;SDS011;5814;41.936;25.556;2024-03-29T05:05:17;28.67;;;12.77;;
11514;SDS011;5814;41.936;25.556;2024-03-29T05:07:43;22.73;;;11.88;;
11514;SDS011;5814;41.936;25.556;2024-03-29T05:10:08;21.60;;;11.07;;
11514;SDS011;5814;41.936;25.556;2024-03-29T05:12:37;21.15;;;10.88;;
11514;SDS011;5814;41.936;25.556;2024-03-29T05:15:03;19.25;;;11.13;;
11514;SDS011;5814;41.936;25.556;2024-03-29T05:17:29;21.00;;;10.70;;
11514;SDS011;5814;41.936;25.556;2024-03-29T05:19:54;16.00;;;9.48;;
11514;SDS011;5814;41.936;25.556;2024-03-29T05:22:20;17.73;;;10.27;;
11514;SDS011;5814;41.936;25.556;2024-03-29T05:24:46;17.30;;;9.90;;
11514;SDS011;5814;41.936;25.556;2024-03-29T05:27:12;15.23;;;10.05;;
11514;SDS011;5814;41.936;25.556;2024-03-29T05:29:37;16.52;;;8.75;;
11514;SDS011;5814;41.936;25.556;2024-03-29T05:32:03;19.75;;;10.40;;
11514;SDS011;5814;41.936;25.556;2024-03-29T05:34:30;19.65;;;10.02;;
11514;SDS011;5814;41.936;25.556;2024-03-29T05:36:55;17.63;;;9.95;;
11514;SDS011;5814;41.936;25.556;2024-03-29T05:39:21;19.27;;;9.63;;
11514;SDS011;5814;41.936;25.556;2024-03-29T05:41:46;21.23;;;11.50;;
11514;SDS011;5814;41.936;25.556;2024-03-29T05:44:12;18.08;;;9.88;;
11514;SDS011;5814;41.936;25.556;2024-03-29T05:46:38;21.17;;;7.88;;
11514;SDS011;5814;41.936;25.556;2024-03-29T05:49:05;13.38;;;7.50;;
11514;SDS011;5814;41.936;25.556;2024-03-29T05:51:31;8.63;;;6.97;;
11514;SDS011;5814;41.936;25.556;2024-03-29T05:53:57;10.02;;;6.60;;
11514;SDS011;5814;41.936;25.556;2024-03-29T05:56:22;16.02;;;7.50;;
11514;SDS011;5814;41.936;25.556;2024-03-29T05:58:48;18.63;;;8.90;;
11514;SDS011;5814;41.936;25.556;2024-03-29T06:01:13;17.10;;;7.57;;
11514;SDS011;5814;41.936;25.556;2024-03-29T06:03:39;15.07;;;6.95;;
11514;SDS011;5814;41.936;25.556;2024-03-29T06:06:05;15.45;;;7.60;;
11514;SDS011;5814;41.936;25.556;2024-03-29T06:08:30;16.80;;;8.80;;
11514;SDS011;5814;41.936;25.556;2024-03-29T06:10:56;15.05;;;7.70;;
11514;SDS011;5814;41.936;25.556;2024-03-29T06:13:22;12.27;;;8.25;;
11514;SDS011;5814;41.936;25.556;2024-03-29T06:16:06;13.10;;;7.22;;
11514;SDS011;5814;41.936;25.556;2024-03-29T06:18:50;14.65;;;7.25;;
11514;SDS011;5814;41.936;25.556;2024-03-29T06:21:15;7.57;;;6.82;;
11514;SDS011;5814;41.936;25.556;2024-03-29T06:23:41;11.77;;;8.43;;
11514;SDS011;5814;41.936;25.556;2024-03-29T06:26:06;11.93;;;6.72;;
11514;SDS011;5814;41.936;25.556;2024-03-29T06:28:32;13.15;;;7.68;;
11514;SDS011;5814;41.936;25.556;2024-03-29T06:30:58;9.23;;;6.78;;
11514;SDS011;5814;41.936;25.556;2024-03-29T06:33:25;12.32;;;7.43;;
11514;SDS011;5814;41.936;25.556;2024-03-29T06:35:54;9.45;;;7.35;;
11514;SDS011;5814;41.936;25.556;2024-03-29T06:38:20;9.95;;;7.78;;
11514;SDS011;5814;41.936;25.556;2024-03-29T06:40:45;10.55;;;7.90;;
11514;SDS011;5814;41.936;25.556;2024-03-29T06:43:11;12.10;;;7.57;;
11514;SDS011;5814;41.936;25.556;2024-03-29T06:45:40;13.95;;;10.00;;
11514;SDS011;5814;41.936;25.556;2024-03-29T06:48:09;16.70;;;12.25;;
11514;SDS011;5814;41.936;25.556;2024-03-29T06:50:35;14.57;;;9.35;;
11514;SDS011;5814;41.936;25.556;2024-03-29T06:53:02;10.98;;;8.90;;
11514;SDS011;5814;41.936;25.556;2024-03-29T06:55:27;13.18;;;7.30;;
11514;SDS011;5814;41.936;25.556;2024-03-29T06:57:53;16.65;;;11.68;;
11514;SDS011;5814;41.936;25.556;2024-03-29T07:00:18;12.32;;;7.95;;
11514;SDS011;5814;41.936;25.556;2024-03-29T07:02:44;11.63;;;7.40;;
11514;SDS011;5814;41.936;25.556;2024-03-29T07:05:10;9.10;;;7.25;;
11514;SDS011;5814;41.936;25.556;2024-03-29T07:07:37;9.73;;;7.57;;
11514;SDS011;5814;41.936;25.556;2024-03-29T07:10:03;8.00;;;6.22;;
11514;SDS011;5814;41.936;25.556;2024-03-29T07:12:28;10.55;;;7.60;;
11514;SDS011;5814;41.936;25.556;2024-03-29T07:14:54;6.80;;;6.20;;
11514;SDS011;5814;41.936;25.556;2024-03-29T07:17:19;10.60;;;6.93;;
11514;SDS011;5814;41.936;25.556;2024-03-29T07:19:45;11.88;;;7.72;;
11514;SDS011;5814;41.936;25.556;2024-03-29T07:22:10;9.65;;;8.75;;
11514;SDS011;5814;41.936;25.556;2024-03-29T07:24:36;8.77;;;7.72;;
11514;SDS011;5814;41.936;25.556;2024-03-29T07:27:01;7.45;;;6.72;;
11514;SDS011;5814;41.936;25.556;2024-03-29T07:29:27;8.43;;;5.93;;
11514;SDS011;5814;41.936;25.556;2024-03-29T07:31:52;7.45;;;6.22;;
11514;SDS011;5814;41.936;25.556;2024-03-29T07:34:19;6.18;;;5.68;;
11514;SDS011;5814;41.936;25.556;2024-03-29T07:36:45;8.02;;;7.22;;
11514;SDS011;5814;41.936;25.556;2024-03-29T07:39:11;6.65;;;6.05;;
11514;SDS011;5814;41.936;25.556;2024-03-29T07:41:37;7.47;;;6.68;;
11514;SDS011;5814;41.936;25.556;2024-03-29T07:44:02;6.40;;;5.80;;
11514;SDS011;5814;41.936;25.556;2024-03-29T07:46:32;7.45;;;6.72;;
11514;SDS011;5814;41.936;25.556;2024-03-29T07:48:58;7.03;;;6.18;;
11514;SDS011;5814;41.936;25.556;2024-03-29T07:51:24;7.78;;;6.93;;
11514;SDS011;5814;41.936;25.556;2024-03-29T07:53:50;9.45;;;6.82;;
11514;SDS011;5814;41.936;25.556;2024-03-29T07:56:15;8.80;;;8.00;;
11514;SDS011;5814;41.936;25.556;2024-03-29T07:58:42;6.43;;;5.93;;
11514;SDS011;5814;41.936;25.556;2024-03-29T08:01:17;8.15;;;7.45;;
11514;SDS011;5814;41.936;25.556;2024-03-29T08:03:43;7.03;;;5.78;;
11514;SDS011;5814;41.936;25.556;2024-03-29T08:06:08;16.23;;;13.57;;
11514;SDS011;5814;41.936;25.556;2024-03-29T08:08:33;6.50;;;5.97;;
11514;SDS011;5814;41.936;25.556;2024-03-29T08:10:59;7.32;;;6.63;;
11514;SDS011;5814;41.936;25.556;2024-03-29T08:13:25;9.00;;;6.90;;
11514;SDS011;5814;41.936;25.556;2024-03-29T08:15:58;6.32;;;5.53;;
11514;SDS011;5814;41.936;25.556;2024-03-29T08:18:25;7.18;;;6.68;;
11514;SDS011;5814;41.936;25.556;2024-03-29T08:20:52;6.50;;;6.10;;
11514;SDS011;5814;41.936;25.556;2024-03-29T08:23:20;7.93;;;7.22;;
11514;SDS011;5814;41.936;25.556;2024-03-29T08:25:48;11.05;;;9.95;;
11514;SDS011;5814;41.936;25.556;2024-03-29T08:28:14;7.80;;;7.15;;
11514;SDS011;5814;41.936;25.556;2024-03-29T08:30:40;7.68;;;7.00;;
11514;SDS011;5814;41.936;25.556;2024-03-29T08:33:05;7.80;;;6.93;;
11514;SDS011;5814;41.936;25.556;2024-03-29T08:35:32;8.38;;;7.40;;
11514;SDS011;5814;41.936;25.556;2024-03-29T08:37:59;6.43;;;5.93;;
11514;SDS011;5814;41.936;25.556;2024-03-29T08:40:27;7.07;;;6.32;;
11514;SDS011;5814;41.936;25.556;2024-03-29T08:42:59;5.90;;;5.40;;
11514;SDS011;5814;41.936;25.556;2024-03-29T08:45:25;7.07;;;6.28;;
11514;SDS011;5814;41.936;25.556;2024-03-29T08:47:50;6.50;;;6.10;;
11514;SDS011;5814;41.936;25.556;2024-03-29T08:50:16;6.00;;;5.60;;
11514;SDS011;5814;41.936;25.556;2024-03-29T08:52:41;6.03;;;5.55;;
11514;SDS011;5814;41.936;25.556;2024-03-29T08:55:07;6.13;;;5.70;;
11514;SDS011;5814;41.936;25.556;2024-03-29T08:57:34;5.90;;;5.40;;
11514;SDS011;5814;41.936;25.556;2024-03-29T08:59:59;6.15;;;5.78;;
11514;SDS011;5814;41.936;25.556;2024-03-29T09:02:25;6.15;;;5.72;;
11514;SDS011;5814;41.936;25.556;2024-03-29T09:04:51;6.85;;;5.90;;
11514;SDS011;5814;41.936;25.556;2024-03-29T09:07:17;6.10;;;5.70;;
11514;SDS011;5814;41.936;25.556;2024-03-29T09:09:43;6.18;;;5.80;;
11514;SDS011;5814;41.936;25.556;2024-03-29T09:12:08;6.88;;;6.38;;
11514;SDS011;5814;41.936;25.556;2024-03-29T09:14:34;7.35;;;6.53;;
11514;SDS011;5814;41.936;25.556;2024-03-29T09:16:59;5.80;;;5.40;;
11514;SDS011;5814;41.936;25.556;2024-03-29T09:19:25;6.30;;;5.80;;
11514;SDS011;5814;41.936;25.556;2024-03-29T09:21:52;6.35;;;5.93;;
11514;SDS011;5814;41.936;25.556;2024-03-29T09:24:17;6.45;;;5.95;;
11514;SDS011;5814;41.936;25.556;2024-03-29T09:26:43;7.43;;;6.70;;
11514;SDS011;5814;41.936;25.556;2024-03-29T09:29:08;6.38;;;5.88;;
11514;SDS011;5814;41.936;25.556;2024-03-29T09:31:34;5.85;;;5.50;;
11514;SDS011;5814;41.936;25.556;2024-03-29T09:34:00;6.03;;;5.57;;
11514;SDS011;5814;41.936;25.556;2024-03-29T09:36:25;6.38;;;5.78;;
11514;SDS011;5814;41.936;25.556;2024-03-29T09:38:51;6.38;;;5.88;;
11514;SDS011;5814;41.936;25.556;2024-03-29T09:41:17;6.13;;;5.72;;
11514;SDS011;5814;41.936;25.556;2024-03-29T09:43:45;5.85;;;5.50;;
11514;SDS011;5814;41.936;25.556;2024-03-29T09:46:12;6.22;;;5.85;;
11514;SDS011;5814;41.936;25.556;2024-03-29T09:48:39;8.43;;;7.85;;
11514;SDS011;5814;41.936;25.556;2024-03-29T09:51:11;6.15;;;5.65;;
11514;SDS011;5814;41.936;25.556;2024-03-29T09:53:40;6.13;;;5.72;;
11514;SDS011;5814;41.936;25.556;2024-03-29T09:56:07;5.63;;;5.32;;
11514;SDS011;5814;41.936;25.556;2024-03-29T09:58:34;6.35;;;5.95;;
11514;SDS011;5814;41.936;25.556;2024-03-29T10:01:00;5.90;;;5.53;;
11514;SDS011;5814;41.936;25.556;2024-03-29T10:03:28;5.85;;;5.45;;
11514;SDS011;5814;41.936;25.556;2024-03-29T10:05:58;5.75;;;5.43;;
11514;SDS011;5814;41.936;25.556;2024-03-29T10:08:28;5.68;;;5.38;;
11514;SDS011;5814;41.936;25.556;2024-03-29T10:10:55;5.68;;;5.38;;
11514;SDS011;5814;41.936;25.556;2024-03-29T10:13:25;6.20;;;5.90;;
11514;SDS011;5814;41.936;25.556;2024-03-29T10:15:51;8.82;;;7.07;;
11514;SDS011;5814;41.936;25.556;2024-03-29T10:18:20;6.50;;;6.15;;
11514;SDS011;5814;41.936;25.556;2024-03-29T10:20:46;6.78;;;6.07;;
11514;SDS011;5814;41.936;25.556;2024-03-29T10:23:11;6.75;;;6.20;;
11514;SDS011;5814;41.936;25.556;2024-03-29T10:25:37;5.88;;;5.47;;
11514;SDS011;5814;41.936;25.556;2024-03-29T10:28:03;6.47;;;6.07;;
11514;SDS011;5814;41.936;25.556;2024-03-29T10:30:29;6.70;;;6.30;;
11514;SDS011;5814;41.936;25.556;2024-03-29T10:32:55;6.38;;;5.90;;
11514;SDS011;5814;41.936;25.556;2024-03-29T10:35:21;5.90;;;5.60;;
11514;SDS011;5814;41.936;25.556;2024-03-29T10:37:47;6.32;;;5.93;;
11514;SDS011;5814;41.936;25.556;2024-03-29T10:40:13;12.60;;;11.38;;
11514;SDS011;5814;41.936;25.556;2024-03-29T10:42:41;5.53;;;5.22;;
11514;SDS011;5814;41.936;25.556;2024-03-29T10:45:07;7.25;;;6.75;;
11514;SDS011;5814;41.936;25.556;2024-03-29T10:47:33;7.07;;;5.05;;
11514;SDS011;5814;41.936;25.556;2024-03-29T10:49:59;6.03;;;5.72;;
11514;SDS011;5814;41.936;25.556;2024-03-29T10:52:25;6.30;;;5.90;;
11514;SDS011;5814;41.936;25.556;2024-03-29T10:54:51;6.22;;;5.70;;
11514;SDS011;5814;41.936;25.556;2024-03-29T10:57:25;7.78;;;6.20;;
11514;SDS011;5814;41.936;25.556;2024-03-29T11:00:08;6.75;;;6.03;;
11514;SDS011;5814;41.936;25.556;2024-03-29T11:02:50;7.90;;;7.40;;
11514;SDS011;5814;41.936;25.556;2024-03-29T11:05:22;6.70;;;6.40;;
11514;SDS011;5814;41.936;25.556;2024-03-29T11:07:51;7.13;;;6.72;;
11514;SDS011;5814;41.936;25.556;2024-03-29T11:10:23;6.72;;;6.32;;
11514;SDS011;5814;41.936;25.556;2024-03-29T11:13:05;6.53;;;6.03;;
11514;SDS011;5814;41.936;25.556;2024-03-29T11:15:40;6.40;;;6.00;;
11514;SDS011;5814;41.936;25.556;2024-03-29T11:18:07;6.80;;;6.40;;
11514;SDS011;5814;41.936;25.556;2024-03-29T11:20:34;6.68;;;6.28;;
11514;SDS011;5814;41.936;25.556;2024-03-29T11:23:03;7.10;;;6.50;;
11514;SDS011;5814;41.936;25.556;2024-03-29T11:25:52;6.30;;;5.90;;
11514;SDS011;5814;41.936;25.556;2024-03-29T11:28:23;6.55;;;6.15;;
11514;SDS011;5814;41.936;25.556;2024-03-29T11:30:56;7.30;;;6.63;;
11514;SDS011;5814;41.936;25.556;2024-03-29T11:35:50;6.07;;;5.68;;
11514;SDS011;5814;41.936;25.556;2024-03-29T11:38:19;6.40;;;6.00;;
11514;SDS011;5814;41.936;25.556;2024-03-29T11:40:54;6.55;;;6.05;;
11514;SDS011;5814;41.936;25.556;2024-03-29T11:43:20;6.30;;;5.90;;
11514;SDS011;5814;41.936;25.556;2024-03-29T11:45:46;6.60;;;6.20;;
11514;SDS011;5814;41.936;25.556;2024-03-29T11:48:17;7.00;;;6.60;;
11514;SDS011;5814;41.936;25.556;2024-03-29T11:50:48;6.40;;;6.00;;
11514;SDS011;5814;41.936;25.556;2024-03-29T11:53:13;6.43;;;6.03;;
11514;SDS011;5814;41.936;25.556;2024-03-29T11:55:39;6.55;;;6.10;;
11514;SDS011;5814;41.936;25.556;2024-03-29T11:58:04;6.55;;;6.10;;
11514;SDS011;5814;41.936;25.556;2024-03-29T12:00:30;6.85;;;6.45;;
11514;SDS011;5814;41.936;25.556;2024-03-29T12:02:56;6.05;;;5.70;;
11514;SDS011;5814;41.936;25.556;2024-03-29T12:05:23;6.18;;;5.88;;
11514;SDS011;5814;41.936;25.556;2024-03-29T12:07:49;6.80;;;6.40;;
11514;SDS011;5814;41.936;25.556;2024-03-29T12:10:14;6.80;;;6.30;;
11514;SDS011;5814;41.936;25.556;2024-03-29T12:12:40;7.78;;;7.18;;
11514;SDS011;5814;41.936;25.556;2024-03-29T12:15:07;6.30;;;5.90;;
11514;SDS011;5814;41.936;25.556;2024-03-29T12:17:33;6.53;;;6.13;;
11514;SDS011;5814;41.936;25.556;2024-03-29T12:19:59;7.00;;;6.57;;
11514;SDS011;5814;41.936;25.556;2024-03-29T12:22:31;6.40;;;6.00;;
11514;SDS011;5814;41.936;25.556;2024-03-29T12:24:57;6.38;;;6.00;;
11514;SDS011;5814;41.936;25.556;2024-03-29T12:27:23;6.53;;;6.00;;
11514;SDS011;5814;41.936;25.556;2024-03-29T12:29:50;6.80;;;6.40;;
11514;SDS011;5814;41.936;25.556;2024-03-29T12:32:19;6.28;;;5.88;;
11514;SDS011;5814;41.936;25.556;2024-03-29T12:34:45;6.60;;;6.10;;
11514;SDS011;5814;41.936;25.556;2024-03-29T12:37:12;6.80;;;6.30;;
11514;SDS011;5814;41.936;25.556;2024-03-29T12:39:40;6.68;;;6.13;;
11514;SDS011;5814;41.936;25.556;2024-03-29T12:42:07;6.65;;;6.00;;
11514;SDS011;5814;41.936;25.556;2024-03-29T12:44:32;6.05;;;5.70;;
11514;SDS011;5814;41.936;25.556;2024-03-29T12:46:59;6.45;;;5.97;;
11514;SDS011;5814;41.936;25.556;2024-03-29T12:49:25;6.10;;;5.75;;
11514;SDS011;5814;41.936;25.556;2024-03-29T12:51:51;6.57;;;6.07;;
11514;SDS011;5814;41.936;25.556;2024-03-29T12:54:17;6.75;;;6.20;;
11514;SDS011;5814;41.936;25.556;2024-03-29T12:56:44;6.72;;;6.22;;
11514;SDS011;5814;41.936;25.556;2024-03-29T12:59:10;6.70;;;6.30;;
11514;SDS011;5814;41.936;25.556;2024-03-29T13:01:35;6.68;;;6.28;;
11514;SDS011;5814;41.936;25.556;2024-03-29T13:04:01;6.60;;;6.20;;
11514;SDS011;5814;41.936;25.556;2024-03-29T13:06:26;6.43;;;5.93;;
11514;SDS011;5814;41.936;25.556;2024-03-29T13:08:52;6.05;;;5.75;;
11514;SDS011;5814;41.936;25.556;2024-03-29T13:11:19;6.25;;;5.95;;
11514;SDS011;5814;41.936;25.556;2024-03-29T13:13:44;6.32;;;5.90;;
11514;SDS011;5814;41.936;25.556;2024-03-29T13:16:10;6.88;;;6.35;;
11514;SDS011;5814;41.936;25.556;2024-03-29T13:18:36;6.53;;;6.22;;
11514;SDS011;5814;41.936;25.556;2024-03-29T13:21:01;6.80;;;6.40;;
11514;SDS011;5814;41.936;25.556;2024-03-29T13:23:28;6.90;;;6.40;;
11514;SDS011;5814;41.936;25.556;2024-03-29T13:25:54;6.55;;;6.05;;
11514;SDS011;5814;41.936;25.556;2024-03-29T13:28:21;10.38;;;9.65;;
11514;SDS011;5814;41.936;25.556;2024-03-29T13:30:47;7.50;;;6.93;;
11514;SDS011;5814;41.936;25.556;2024-03-29T13:33:14;6.85;;;6.35;;
11514;SDS011;5814;41.936;25.556;2024-03-29T13:35:41;6.57;;;6.20;;
11514;SDS011;5814;41.936;25.556;2024-03-29T13:38:07;6.88;;;6.40;;
11514;SDS011;5814;41.936;25.556;2024-03-29T13:40:33;7.38;;;6.90;;
11514;SDS011;5814;41.936;25.556;2024-03-29T13:42:59;7.28;;;6.88;;
11514;SDS011;5814;41.936;25.556;2024-03-29T13:45:25;6.68;;;6.38;;
11514;SDS011;5814;41.936;25.556;2024-03-29T13:47:53;6.78;;;6.38;;
11514;SDS011;5814;41.936;25.556;2024-03-29T13:50:19;6.50;;;6.13;;
11514;SDS011;5814;41.936;25.556;2024-03-29T13:52:45;7.28;;;6.88;;
11514;SDS011;5814;41.936;25.556;2024-03-29T13:55:11;6.50;;;6.10;;
11514;SDS011;5814;41.936;25.556;2024-03-29T13:57:37;6.78;;;6.47;;
11514;SDS011;5814;41.936;25.556;2024-03-29T14:00:03;7.05;;;6.65;;
11514;SDS011;5814;41.936;25.556;2024-03-29T14:02:31;6.50;;;6.20;;
11514;SDS011;5814;41.936;25.556;2024-03-29T14:04:56;7.28;;;6.70;;
11514;SDS011;5814;41.936;25.556;2024-03-29T14:07:22;6.88;;;6.47;;
11514;SDS011;5814;41.936;25.556;2024-03-29T14:09:50;6.88;;;6.40;;
11514;SDS011;5814;41.936;25.556;2024-03-29T14:12:16;6.65;;;6.35;;
11514;SDS011;5814;41.936;25.556;2024-03-29T14:14:43;6.72;;;6.32;;
11514;SDS011;5814;41.936;25.556;2024-03-29T14:17:12;6.45;;;6.07;;
11514;SDS011;5814;41.936;25.556;2024-03-29T14:19:38;6.45;;;6.15;;
11514;SDS011;5814;41.936;25.556;2024-03-29T14:22:04;6.53;;;6.22;;
11514;SDS011;5814;41.936;25.556;2024-03-29T14:24:30;7.07;;;6.38;;
11514;SDS011;5814;41.936;25.556;2024-03-29T14:27:00;6.32;;;6.00;;
11514;SDS011;5814;41.936;25.556;2024-03-29T14:29:26;6.68;;;6.07;;
11514;SDS011;5814;41.936;25.556;2024-03-29T14:31:52;6.28;;;5.88;;
11514;SDS011;5814;41.936;25.556;2024-03-29T14:34:20;6.80;;;6.18;;